AirNav   TITAN Aviation Fuels
 
 723 users online  

7KS1 Rooks County Health Center Heliport
Plainville, Kansas, USA


FAA INFORMATION EFFECTIVE 08 SEPTEMBER 2022

Location

FAA Identifier: 7KS1
Lat/Long: 39-14-51.8800N 099-17-51.1200W
39-14.864667N 099-17.852000W
39.2477444,-99.2975333
(estimated)
Elevation: 2156 ft. / 657 m (estimated)
From city: 1 mile N of PLAINVILLE, KS
Time zone: UTC -5 (UTC -6 during Standard Time)
Zip code: 67663

Heliport Operations

Heliport use: Private use. Permission required prior to landing
Activation date: 01/2022
Control tower: no
ARTCC: KANSAS CITY CENTER
FSS: WICHITA FLIGHT SERVICE STATION
Attendance: 
Segmented circle: no

Heliport Communications

WX AWOS-AV at RCP (6 nm N): 120.075 (785-425-7042)

Nearby radio navigation aids

VOR radial/distance  VOR name  Freq  Var
HYSr348/24.0HAYS VORTAC110.4010E

Heliport Services

Runway Information

Helipad H1

Dimensions: 40 x 40 ft. / 12 x 12 m
Surface: concrete
Latitude: 39-14.864667N
Longitude: 099-17.852000W
Elevation: 2156.0 ft.
Traffic pattern: leftleft

Heliport Ownership and Management from official FAA records

Ownership: Privately-owned
Owner: ROOKS COUNTY HEALTH CENTER
1210 N. WASHINGTON ST.
PLAINVILLE, KS 67663
Phone 785-434-4553
Manager: JUNE KARLIN
1210 N. WASHINGTON ST.
PLAINVILLE, KS 67663
Phone 785-434-4553

Heliport Operational Statistics

Aircraft based on the field: 1
Helicopters: 1
    

Instrument Procedures

There are no published instrument procedures at 7KS1.

Some nearby airports with instrument procedures:

KRCP - Rooks County Regional Airport (6 nm N)
KHYS - Hays Regional Airport (24 nm S)
KHLC - Hill City Municipal Airport (26 nm W)
KPHG - Phillipsburg Municipal Airport (29 nm N)
0H1 - Trego Wakeeney Airport (31 nm SW)
 
Loc | Ops | Rwys | IFR | FBO | Links
Com | Nav | Svcs | Stats | Notes
Aerial photo
No photo
 
Airport distance calculator
Flying to Rooks County Health Center Heliport? Find the distance to fly.

From to 7KS1

Sunrise and sunset
Times for 26-Sep-2022
 Local
(UTC-5)
 Zulu
(UTC)
Morning civil twilight07:0312:03
Sunrise07:3012:30
Sunset19:2700:27
Evening civil twilight19:5400:54

Current date and time
Zulu (UTC)  26-Sep-2022 11:02:10
Local (UTC-5)  26-Sep-2022 06:02:10
 
METAR
KHYS 
24nm S 
261056Z AUTO 33005KT 10SM CLR 09/06 A3022 RMK AO2 SLP227 T00890061 $
KHLC 
26nm W 
261053Z AUTO 00000KT 10SM CLR 08/06 A3022 RMK AO2 SLP224 T00780061
KRSL 
32nm SE 
261053Z AUTO 34006KT 10SM CLR 11/06 A3019 RMK AO2 SLP218 T01060061
KK82 
39nm NE 
261055Z AUTO 00000KT 10SM CLR 07/05 A3022 RMK AO2
KNRN 
46nm NW 
261055Z AUTO 00000KT 10SM CLR 07/03 A3026 RMK AO2
TAF
KHYS 
24nm S 
260532Z 2606/2706 13006KT P6SM SKC= TAF KGCK 260532Z 2606/2706 22005KT P6SM SKC FM261400 21010KT P6SM SKC
NOTAMs
Click for the latest NOTAMs
NOTAMs are issued by the DoD/FAA and will open in a separate window not controlled by AirNav.

 

 
 

Would you like to see your business listed on this page?

 If your business provides an interesting product or service to pilots, flight crews, aircraft, or users of the Rooks County Health Center Heliport, you should consider listing it here.  To start the listing process, click on the button below
 
Add a business
 

Other Pages about Rooks County Health Center Heliport

Update a link
 
Copyright © AirNav, LLC. All rights reserved. Privacy Policy  Contact